Time;durP1;ratioP1;P1;durP2;ratioP2;P2;SDS_P1;SDS_P2;PMS_P1;PMS_P2;Temp;Humidity;BMP_temperature;BMP_pressure;BME280_temperature;BME280_humidity;BME280_pressure;Samples;Min_cycle;Max_cycle;Signal;HPM_P1;HPM_P2
2023/02/24 00:01:18;;;;;;;119.90;53.25;;;5.40;63.40;;;;;;5033346;28;20330;-66
2023/02/24 00:03:44;;;;;;;122.78;55.83;;;5.40;63.40;;;;;;5040390;28;20033;-68
2023/02/24 00:06:11;;;;;;;134.63;56.13;;;5.50;63.40;;;;;;5028453;28;20025;-67
2023/02/24 00:08:41;;;;;;;130.55;55.65;;;5.50;63.40;;;;;;5031321;28;20441;-67
2023/02/24 00:11:15;;;;;;;104.82;47.40;;;5.70;63.50;;;;;;5041006;28;20037;-68
2023/02/24 00:13:45;;;;;;;77.78;40.42;;;5.60;63.40;;;;;;5036832;28;20394;-68
2023/02/24 00:16:17;;;;;;;95.35;44.25;;;5.50;63.20;;;;;;5024237;28;20030;-67
2023/02/24 00:18:44;;;;;;;97.95;44.60;;;5.40;63.30;;;;;;5035752;28;20636;-68
2023/02/24 00:21:13;;;;;;;91.07;42.22;;;5.30;63.10;;;;;;5037704;28;20419;-68
2023/02/24 00:23:40;;;;;;;96.00;45.78;;;5.30;63.10;;;;;;5031089;28;20021;-68
2023/02/24 00:26:08;;;;;;;79.57;42.25;;;5.40;63.20;;;;;;5031368;28;20060;-67
2023/02/24 00:28:34;;;;;;;102.45;45.92;;;5.40;63.20;;;;;;5033420;28;20044;-68
2023/02/24 00:31:06;;;;;;;126.85;50.53;;;5.40;63.20;;;;;;5037253;28;20036;-68
2023/02/24 00:33:32;;;;;;;97.93;46.95;;;5.40;63.20;;;;;;5040147;28;20110;-67
2023/02/24 00:36:10;;;;;;;110.95;49.65;;;5.40;63.20;;;;;;5026448;28;20037;-67
2023/02/24 00:38:37;;;;;;;131.65;53.30;;;5.50;63.10;;;;;;5031240;28;20033;-67
2023/02/24 00:41:11;;;;;;;119.75;52.72;;;5.60;63.20;;;;;;5036430;28;20418;-68
2023/02/24 00:43:37;;;;;;;;;;;5.70;63.20;;;;;;5031451;28;20030;-68
2023/02/24 00:46:09;;;;;;;92.88;45.15;;;5.70;63.20;;;;;;5034257;28;19940;-67
2023/02/24 00:48:39;;;;;;;111.20;48.10;;;5.60;63.10;;;;;;5026764;28;20030;-68
2023/02/24 00:51:09;;;;;;;114.90;50.28;;;5.60;63.00;;;;;;5021387;28;20124;-68
2023/02/24 00:53:38;;;;;;;111.20;51.55;;;5.60;63.00;;;;;;5044223;28;20029;-68
2023/02/24 00:56:10;;;;;;;129.90;53.88;;;5.70;63.10;;;;;;5032373;28;20105;-68
2023/02/24 00:58:37;;;;;;;79.88;44.33;;;5.80;63.20;;;;;;5034588;28;20049;-67
2023/02/24 01:01:03;;;;;;;92.60;45.28;;;5.90;63.20;;;;;;5031296;28;20486;-67
2023/02/24 01:03:31;;;;;;;165.60;57.75;;;6.10;63.30;;;;;;5045879;28;20021;-67
2023/02/24 01:06:02;;;;;;;109.53;48.70;;;6.00;63.20;;;;;;5030701;28;20080;-67
2023/02/24 01:08:27;;;;;;;78.10;40.85;;;5.90;63.00;;;;;;5024795;28;20032;-67
2023/02/24 01:13:44;;;;;;;124.18;48.10;;;5.80;62.80;;;;;;5035053;28;20041;-67
2023/02/24 01:16:17;;;;;;;62.60;36.72;;;5.70;62.90;;;;;;5030350;28;20500;-67
2023/02/24 01:18:46;;;;;;;62.92;37.00;;;5.80;62.90;;;;;;5034435;28;20030;-67
2023/02/24 01:21:16;;;;;;;60.40;37.15;;;5.90;63.00;;;;;;5017135;28;20022;-67
2023/02/24 01:23:42;;;;;;;119.75;47.60;;;6.00;63.00;;;;;;5016419;28;20025;-68
2023/02/24 01:26:09;;;;;;;84.45;43.22;;;6.00;63.00;;;;;;5018910;28;20075;-67
2023/02/24 01:28:36;;;;;;;71.55;38.45;;;6.00;62.90;;;;;;5054325;28;20025;-67
2023/02/24 01:31:04;;;;;;;130.52;48.00;;;5.90;62.90;;;;;;5037026;28;20022;-67
2023/02/24 01:33:32;;;;;;;73.47;40.58;;;5.90;62.80;;;;;;5038606;28;20033;-67
2023/02/24 01:36:11;;;;;;;72.20;39.88;;;5.80;62.80;;;;;;5034532;28;20038;-67
2023/02/24 01:38:38;;;;;;;82.78;41.92;;;5.80;62.70;;;;;;5029771;28;20296;-68
2023/02/24 01:41:08;;;;;;;99.82;48.22;;;5.80;62.80;;;;;;5037123;28;20437;-67
2023/02/24 01:43:53;;;;;;;79.78;41.47;;;5.80;62.70;;;;;;5041917;28;20030;-67
2023/02/24 01:46:22;;;;;;;79.57;41.72;;;5.80;62.70;;;;;;5036995;28;20017;-67
2023/02/24 01:48:53;;;;;;;156.35;53.13;;;5.90;62.80;;;;;;5033877;28;20457;-67
2023/02/24 01:51:19;;;;;;;91.45;44.40;;;5.90;62.80;;;;;;5043972;28;20060;-67
2023/02/24 01:53:48;;;;;;;126.72;50.13;;;6.00;62.80;;;;;;5025498;28;20040;-67
2023/02/24 01:56:15;;;;;;;77.25;42.80;;;6.00;62.70;;;;;;5037220;28;20036;-67
2023/02/24 01:58:41;;;;;;;100.38;43.90;;;6.10;62.60;;;;;;5038793;28;20065;-67
2023/02/24 02:01:08;;;;;;;130.45;48.28;;;6.20;62.70;;;;;;5037820;28;20033;-66
2023/02/24 02:03:39;;;;;;;48.53;30.77;;;6.00;63.10;;;;;;5029866;28;20403;-67
2023/02/24 02:06:07;;;;;;;57.75;34.67;;;5.90;62.50;;;;;;5034483;28;20029;-66
2023/02/24 02:08:35;;;;;;;56.67;34.03;;;6.00;62.70;;;;;;5041743;28;20045;-67
2023/02/24 02:11:07;;;;;;;82.85;39.58;;;5.90;62.80;;;;;;5055638;28;20384;-68
2023/02/24 02:13:37;;;;;;;120.68;47.17;;;5.80;62.80;;;;;;5031738;28;20445;-67
2023/02/24 02:16:23;;;;;;;69.38;37.08;;;5.80;62.80;;;;;;5019935;28;20042;-67
2023/02/24 02:19:04;;;;;;;76.95;38.85;;;5.80;62.70;;;;;;5034785;28;20022;-68
2023/02/24 02:21:57;;;;;;;78.00;39.58;;;5.80;62.70;;;;;;5018939;28;20097;-68
2023/02/24 02:24:51;;;;;;;56.15;32.65;;;5.80;62.70;;;;;;5025935;28;20029;-67
2023/02/24 02:27:49;;;;;;;62.58;34.58;;;6.00;62.70;;;;;;5035383;28;20033;-67
2023/02/24 02:30:30;;;;;;;104.25;41.65;;;6.00;62.80;;;;;;5017075;28;20084;-67
2023/02/24 02:33:44;;;;;;;121.53;45.75;;;6.00;62.80;;;;;;5021641;28;20018;-67
2023/02/24 02:36:35;;;;;;;84.75;40.70;;;6.00;62.80;;;;;;5009228;28;20033;-67
2023/02/24 02:39:10;;;;;;;99.90;43.05;;;5.90;62.70;;;;;;5035286;28;20025;-67
2023/02/24 02:41:52;;;;;;;98.82;42.88;;;6.00;62.70;;;;;;5056090;28;20435;-68
2023/02/24 02:44:31;;;;;;;101.38;43.50;;;5.90;62.70;;;;;;5042181;28;20037;-67
2023/02/24 02:47:17;;;;;;;103.70;41.17;;;5.90;62.80;;;;;;5039110;28;20021;-67
2023/02/24 02:49:51;;;;;;;114.88;46.92;;;5.90;62.70;;;;;;5021197;28;20032;-68
2023/02/24 02:52:26;;;;;;;74.57;37.15;;;5.90;62.70;;;;;;5045139;28;20382;-67
2023/02/24 02:55:08;;;;;;;92.63;39.33;;;5.90;62.70;;;;;;5035336;28;20040;-67
2023/02/24 02:57:40;;;;;;;59.83;34.75;;;6.00;62.70;;;;;;5032709;28;20042;-67
2023/02/24 03:00:34;;;;;;;52.33;31.88;;;6.10;62.50;;;;;;5029488;28;20033;-67
2023/02/24 03:03:06;;;;;;;81.93;39.42;;;6.20;62.50;;;;;;5022635;28;20467;-67
2023/02/24 03:05:46;;;;;;;129.93;48.22;;;6.20;62.70;;;;;;5034063;28;20315;-68
2023/02/24 03:08:17;;;;;;;68.13;35.65;;;6.10;62.80;;;;;;5036411;28;20022;-67
2023/02/24 03:10:49;;;;;;;69.80;35.60;;;6.10;62.50;;;;;;5036853;28;20025;-67
2023/02/24 03:13:21;;;;;;;70.53;35.67;;;6.20;62.50;;;;;;5033524;28;20112;-67
2023/02/24 03:15:49;;;;;;;67.95;35.72;;;6.30;62.40;;;;;;5033762;28;20444;-67
2023/02/24 03:18:20;;;;;;;113.63;46.13;;;6.30;62.50;;;;;;5026232;28;20030;-66
2023/02/24 03:20:56;;;;;;;62.72;35.63;;;6.40;62.50;;;;;;5029668;28;20438;-68
2023/02/24 03:23:29;;;;;;;48.00;30.73;;;6.30;62.60;;;;;;5040682;28;20029;-67
2023/02/24 03:26:16;;;;;;;77.07;35.38;;;6.30;62.60;;;;;;5023365;28;20029;-67
2023/02/24 03:29:00;;;;;;;110.35;42.10;;;6.20;63.00;;;;;;5028797;28;20053;-67
2023/02/24 03:31:32;;;;;;;78.75;35.97;;;6.00;63.10;;;;;;5044344;28;20318;-68
2023/02/24 03:34:16;;;;;;;75.05;35.05;;;5.90;62.80;;;;;;5040264;28;20300;-67
2023/02/24 03:36:42;;;;;;;98.18;41.47;;;5.90;62.80;;;;;;5043434;28;20022;-67
2023/02/24 03:39:11;;;;;;;118.75;45.20;;;5.80;62.80;;;;;;5028055;28;20037;-67
2023/02/24 03:42:07;;;;;;;76.00;35.15;;;5.80;62.70;;;;;;5028267;28;20068;-67
2023/02/24 03:44:35;;;;;;;132.48;43.47;;;5.80;62.70;;;;;;5030201;28;20075;-67
2023/02/24 03:47:01;;;;;;;77.18;34.03;;;5.80;62.60;;;;;;5051247;28;20021;-67
2023/02/24 03:49:27;;;;;;;68.85;30.00;;;5.80;62.60;;;;;;5048882;28;20044;-67
2023/02/24 03:52:11;;;;;;;74.47;34.03;;;5.80;62.70;;;;;;5035078;28;20033;-68
2023/02/24 03:54:43;;;;;;;;;;;5.80;62.60;;;;;;5044542;28;20114;-68
2023/02/24 03:57:29;;;;;;;70.50;29.67;;;5.80;62.50;;;;;;5024857;28;19956;-67
2023/02/24 04:00:24;;;;;;;62.17;31.42;;;5.90;62.60;;;;;;5033021;28;20029;-67
2023/02/24 04:03:00;;;;;;;98.63;37.67;;;5.90;62.70;;;;;;5021544;28;20022;-67
2023/02/24 04:05:38;;;;;;;60.40;32.75;;;6.00;62.70;;;;;;5039250;28;20022;-67
2023/02/24 04:08:07;;;;;;;74.45;33.72;;;6.00;62.50;;;;;;5034660;28;20021;-67
2023/02/24 04:10:51;;;;;;;99.95;37.92;;;6.10;62.60;;;;;;5040991;28;20020;-67
2023/02/24 04:13:37;;;;;;;100.78;37.72;;;6.10;62.70;;;;;;5033960;28;20027;-67
2023/02/24 04:16:26;;;;;;;50.88;29.55;;;6.10;62.60;;;;;;5042130;28;20108;-67
2023/02/24 04:18:57;;;;;;;54.33;31.27;;;6.00;62.60;;;;;;5044543;28;20048;-67
2023/02/24 04:21:27;;;;;;;95.00;40.30;;;6.10;62.60;;;;;;5032163;28;20036;-67
2023/02/24 04:23:54;;;;;;;115.97;44.15;;;6.00;62.70;;;;;;5032355;28;20100;-67
2023/02/24 04:26:21;;;;;;;119.15;42.28;;;6.00;62.70;;;;;;5037504;28;20032;-66
2023/02/24 04:28:49;;;;;;;66.88;33.45;;;5.90;62.70;;;;;;5028290;28;20092;-67
2023/02/24 04:31:17;;;;;;;94.55;38.20;;;6.00;62.50;;;;;;5036506;28;20062;-67
2023/02/24 04:33:49;;;;;;;110.88;40.92;;;6.00;62.60;;;;;;5043705;28;20033;-67
2023/02/24 04:36:16;;;;;;;84.03;36.97;;;5.90;62.80;;;;;;5030571;28;20030;-67
2023/02/24 04:38:42;;;;;;;100.43;37.75;;;5.90;62.70;;;;;;5035665;28;20064;-67
2023/02/24 04:41:10;;;;;;;75.93;33.53;;;5.80;62.80;;;;;;5037166;28;20478;-66
2023/02/24 04:43:37;;;;;;;49.05;25.70;;;5.80;62.70;;;;;;5050724;28;20048;-67
2023/02/24 04:46:06;;;;;;;48.05;26.35;;;5.80;62.70;;;;;;5025693;28;20028;-67
2023/02/24 04:48:33;;;;;;;84.55;35.30;;;5.80;62.70;;;;;;5030569;28;20414;-67
2023/02/24 04:51:05;;;;;;;59.22;29.25;;;5.80;62.80;;;;;;5033251;28;20621;-66
2023/02/24 04:53:31;;;;;;;42.42;22.35;;;5.70;62.90;;;;;;5035756;28;20091;-67
2023/02/24 04:56:09;;;;;;;40.17;22.45;;;5.80;62.50;;;;;;5038226;28;20353;-66
2023/02/24 04:58:38;;;;;;;35.85;19.05;;;5.90;62.60;;;;;;5042023;28;20049;-65
2023/02/24 05:01:09;;;;;;;53.60;24.17;;;5.90;62.60;;;;;;5032263;28;20084;-66
2023/02/24 05:03:36;;;;;;;38.13;20.23;;;5.90;63.00;;;;;;5037052;28;20024;-66
2023/02/24 05:06:02;;;;;;;59.33;28.17;;;5.80;62.70;;;;;;5022418;28;20022;-67
2023/02/24 05:08:29;;;;;;;44.45;22.30;;;5.80;62.80;;;;;;5026138;28;20029;-68
2023/02/24 05:10:57;;;;;;;44.50;23.75;;;5.80;62.70;;;;;;5033742;28;20029;-68
2023/02/24 05:13:30;;;;;;;43.92;23.75;;;5.80;62.90;;;;;;5035786;28;20086;-68
2023/02/24 05:16:06;;;;;;;38.23;20.77;;;5.80;62.90;;;;;;5034068;28;20029;-68
2023/02/24 05:18:35;;;;;;;44.30;22.83;;;5.80;62.70;;;;;;5034689;28;20029;-68
2023/02/24 05:23:53;;;;;;;58.67;27.45;;;5.80;63.30;;;;;;5035904;28;20319;-68
2023/02/24 05:26:22;;;;;;;47.70;23.90;;;5.80;63.10;;;;;;5032543;28;20112;-67
2023/02/24 05:28:51;;;;;;;38.92;21.75;;;5.80;63.00;;;;;;5035587;28;20415;-68
2023/02/24 05:31:25;;;;;;;57.20;27.58;;;5.80;63.10;;;;;;5036398;28;20128;-68
2023/02/24 05:33:58;;;;;;;58.13;26.83;;;5.80;63.20;;;;;;5035376;28;20036;-67
2023/02/24 05:36:26;;;;;;;86.35;31.75;;;5.80;63.10;;;;;;5027004;28;20423;-68
2023/02/24 05:38:56;;;;;;;75.15;29.38;;;5.70;63.00;;;;;;5023555;28;20045;-67
2023/02/24 05:41:31;;;;;;;55.85;26.85;;;5.70;63.00;;;;;;5026471;28;20026;-68
2023/02/24 05:44:00;;;;;;;49.35;24.83;;;5.70;63.00;;;;;;5015546;28;20025;-67
2023/02/24 05:46:27;;;;;;;60.55;26.13;;;5.60;63.00;;;;;;5015132;28;20038;-68
2023/02/24 05:48:55;;;;;;;70.57;31.35;;;5.50;63.40;;;;;;5015883;28;20025;-68
2023/02/24 05:51:34;;;;;;;69.45;29.70;;;5.40;63.40;;;;;;5025832;28;20041;-68
2023/02/24 05:54:07;;;;;;;63.90;29.13;;;5.40;63.20;;;;;;5033606;28;20324;-68
2023/02/24 05:56:35;;;;;;;61.00;27.40;;;5.30;63.10;;;;;;5031077;28;20429;-67
2023/02/24 05:59:02;;;;;;;73.00;29.65;;;5.40;62.90;;;;;;5035131;28;20334;-67
2023/02/24 06:01:29;;;;;;;80.07;31.38;;;5.40;62.90;;;;;;5032717;28;20026;-68
2023/02/24 06:04:04;;;;;;;90.43;37.63;;;5.40;63.10;;;;;;5024763;28;20415;-67
2023/02/24 06:06:35;;;;;;;143.27;76.53;;;5.30;63.50;;;;;;5027530;28;20032;-68
2023/02/24 06:09:09;;;;;;;91.45;40.65;;;5.10;63.40;;;;;;5034065;28;20047;-68
2023/02/24 06:11:41;;;;;;;84.40;35.65;;;5.10;63.30;;;;;;5032632;28;20088;-67
2023/02/24 06:14:09;;;;;;;89.40;31.02;;;5.10;62.90;;;;;;5033723;28;20079;-68
2023/02/24 06:16:36;;;;;;;85.30;35.97;;;5.20;62.70;;;;;;5025227;28;20025;-67
2023/02/24 06:19:06;;;;;;;112.45;52.88;;;5.40;62.70;;;;;;5036756;28;20029;-67
2023/02/24 06:21:40;;;;;;;123.15;47.50;;;5.40;63.00;;;;;;5024794;28;20034;-67
2023/02/24 06:24:09;;;;;;;87.22;36.28;;;5.40;62.90;;;;;;5029572;28;20032;-68
2023/02/24 06:26:35;;;;;;;62.38;29.05;;;5.30;62.80;;;;;;5037286;28;20025;-67
2023/02/24 06:29:03;;;;;;;54.20;26.25;;;5.40;62.80;;;;;;5037155;28;20064;-67
2023/02/24 06:31:28;;;;;;;71.35;29.02;;;5.40;62.80;;;;;;5031483;28;20083;-68
2023/02/24 06:33:54;;;;;;;87.95;31.45;;;5.40;62.70;;;;;;5026946;28;20416;-67
2023/02/24 06:36:21;;;;;;;61.13;27.15;;;5.60;62.60;;;;;;5030417;28;20030;-68
2023/02/24 06:38:48;;;;;;;69.68;28.02;;;5.60;62.70;;;;;;5038039;28;20296;-67
2023/02/24 06:41:14;;;;;;;85.10;34.50;;;5.70;62.50;;;;;;5031561;28;20017;-68
2023/02/24 06:43:42;;;;;;;68.20;32.78;;;5.80;62.70;;;;;;5034460;28;20049;-67
2023/02/24 06:46:10;;;;;;;84.93;35.80;;;5.80;62.70;;;;;;5026963;28;20021;-67
2023/02/24 06:48:36;;;;;;;82.50;34.53;;;5.80;62.60;;;;;;5028733;28;20033;-67
2023/02/24 06:51:14;;;;;;;58.13;28.38;;;5.90;62.60;;;;;;5026748;28;20155;-68
2023/02/24 06:53:42;;;;;;;58.33;27.90;;;6.00;62.50;;;;;;5031689;28;20052;-68
2023/02/24 06:56:18;;;;;;;71.70;29.95;;;6.10;62.50;;;;;;5035786;28;20040;-68
2023/02/24 06:58:51;;;;;;;73.35;30.80;;;6.20;62.60;;;;;;5036003;28;20038;-67
2023/02/24 07:01:20;;;;;;;73.55;30.23;;;6.20;62.60;;;;;;5040932;28;20317;-68
2023/02/24 07:06:35;;;;;;;78.05;29.77;;;6.20;62.50;;;;;;5029627;28;20036;-67
2023/02/24 07:09:07;;;;;;;63.47;33.15;;;6.20;62.70;;;;;;5045604;28;20032;-67
2023/02/24 07:11:34;;;;;;;85.13;33.35;;;6.20;62.50;;;;;;5024348;28;20088;-68
2023/02/24 07:14:01;;;;;;;71.45;33.53;;;6.20;62.70;;;;;;5027083;28;20103;-67
2023/02/24 07:16:27;;;;;;;68.88;33.70;;;6.20;62.70;;;;;;5035899;28;20029;-67
2023/02/24 07:18:55;;;;;;;91.35;38.83;;;6.20;62.90;;;;;;5037314;28;20033;-67
2023/02/24 07:21:22;;;;;;;76.43;33.80;;;6.20;62.70;;;;;;5021484;28;20113;-67
2023/02/24 07:23:49;;;;;;;62.85;27.70;;;6.20;63.00;;;;;;5030171;28;20025;-67
2023/02/24 07:26:17;;;;;;;65.47;28.73;;;6.10;63.30;;;;;;5035812;28;20065;-67
2023/02/24 07:28:44;;;;;;;78.38;29.05;;;6.00;64.00;;;;;;5029760;28;20088;-68
2023/02/24 07:31:12;;;;;;;64.15;26.90;;;6.00;63.60;;;;;;5034436;28;20124;-67
2023/02/24 07:33:39;;;;;;;70.40;26.40;;;6.10;63.50;;;;;;5037242;28;20022;-67
2023/02/24 07:36:09;;;;;;;70.60;25.17;;;6.20;63.50;;;;;;5037207;28;20095;-67
2023/02/24 07:38:39;;;;;;;85.72;30.92;;;6.10;64.00;;;;;;5032798;28;20037;-67
2023/02/24 07:41:06;;;;;;;64.75;25.42;;;6.00;64.80;;;;;;5027179;28;20040;-67
2023/02/24 07:43:33;;;;;;;54.00;23.83;;;6.00;64.70;;;;;;5031478;28;20021;-67
2023/02/24 07:46:13;;;;;;;54.92;23.73;;;6.00;63.60;;;;;;5024991;28;20044;-67
2023/02/24 07:48:40;;;;;;;68.30;26.30;;;6.20;63.50;;;;;;5037182;28;20025;-66
2023/02/24 07:51:18;;;;;;;58.35;24.67;;;6.30;64.20;;;;;;5023505;28;20034;-66
2023/02/24 07:53:55;;;;;;;60.17;27.88;;;6.20;64.20;;;;;;5027238;28;20032;-66
2023/02/24 07:56:31;;;;;;;54.22;25.75;;;6.30;64.00;;;;;;5035430;28;20036;-67
2023/02/24 07:59:09;;;;;;;61.50;25.35;;;6.40;63.70;;;;;;5036848;28;20046;-68
2023/02/24 08:01:37;;;;;;;63.70;27.02;;;6.40;64.40;;;;;;5033060;28;20381;-68
2023/02/24 08:04:07;;;;;;;53.03;23.25;;;6.30;65.40;;;;;;5030136;28;20025;-68
2023/02/24 08:06:38;;;;;;;45.28;23.17;;;6.30;65.20;;;;;;5036835;28;20022;-68
2023/02/24 08:09:15;;;;;;;39.88;19.13;;;6.30;65.00;;;;;;5037293;28;20120;-68
2023/02/24 08:11:53;;;;;;;40.70;19.70;;;6.50;65.10;;;;;;5035928;28;20037;-67
2023/02/24 08:14:25;;;;;;;41.25;18.38;;;6.60;67.00;;;;;;5033788;28;20388;-67
2023/02/24 08:17:00;;;;;;;51.05;21.75;;;6.80;67.90;;;;;;5023728;28;20030;-67
2023/02/24 08:19:38;;;;;;;46.60;22.98;;;6.90;70.10;;;;;;5015273;28;20026;-67
2023/02/24 08:22:24;;;;;;;43.47;23.42;;;7.10;70.40;;;;;;5016782;28;20383;-67
2023/02/24 08:25:05;;;;;;;49.50;21.92;;;7.30;74.20;;;;;;5021771;28;20405;-67
2023/02/24 08:27:37;;;;;;;36.90;19.75;;;7.20;78.60;;;;;;5016855;28;20030;-67
2023/02/24 08:30:04;;;;;;;34.75;16.88;;;7.40;78.70;;;;;;5016394;28;20033;-67
2023/02/24 08:32:42;;;;;;;40.20;19.20;;;8.20;78.00;;;;;;5016632;28;20482;-67
2023/02/24 08:35:15;;;;;;;43.15;21.42;;;8.60;91.00;;;;;;5022133;28;20039;-67
2023/02/24 08:37:52;;;;;;;44.75;20.30;;;8.20;95.80;;;;;;5034404;28;20030;-68
2023/02/24 08:43:29;;;;;;;42.22;19.92;;;7.10;91.60;;;;;;5016432;28;20029;-67
2023/02/24 08:46:16;;;;;;;49.67;21.38;;;6.90;88.50;;;;;;5014631;28;20034;-67
2023/02/24 08:48:45;;;;;;;37.30;19.38;;;6.80;87.40;;;;;;5016845;28;20026;-67
2023/02/24 08:51:21;;;;;;;36.63;18.35;;;6.80;87.10;;;;;;5036130;28;20029;-67
2023/02/24 08:53:51;;;;;;;37.25;17.83;;;6.80;85.40;;;;;;5033875;28;20033;-67
2023/02/24 08:56:22;;;;;;;39.15;20.92;;;7.00;85.70;;;;;;5027837;28;20034;-67
2023/02/24 08:58:49;;;;;;;43.95;21.55;;;7.20;87.80;;;;;;5016581;28;20073;-67
2023/02/24 09:01:18;;;;;;;40.78;21.80;;;7.20;89.60;;;;;;5033978;28;20036;-67
2023/02/24 09:03:50;;;;;;;40.28;21.45;;;7.30;88.60;;;;;;5034066;28;20429;-67
2023/02/24 09:06:24;;;;;;;43.60;22.80;;;7.30;89.10;;;;;;5016091;28;20034;-67
2023/02/24 09:09:16;;;;;;;31.33;16.20;;;7.50;88.80;;;;;;5023422;28;20488;-67
2023/02/24 09:11:42;;;;;;;23.77;12.52;;;7.80;92.30;;;;;;5030973;28;20073;-67
2023/02/24 09:14:15;;;;;;;23.15;12.00;;;8.00;92.00;;;;;;5016874;28;20038;-67
2023/02/24 09:17:00;;;;;;;22.67;12.48;;;8.10;96.40;;;;;;5014819;28;20370;-67
2023/02/24 09:19:39;;;;;;;27.60;14.10;;;8.10;95.40;;;;;;5016991;28;20091;-67
2023/02/24 09:22:13;;;;;;;19.95;11.70;;;8.20;96.70;;;;;;5016182;28;20089;-67
2023/02/24 09:24:40;;;;;;;34.55;17.77;;;8.20;97.40;;;;;;5016602;28;20050;-67
2023/02/24 09:27:16;;;;;;;32.53;17.10;;;8.10;97.60;;;;;;5020905;28;20403;-68
2023/02/24 09:29:48;;;;;;;29.50;15.90;;;8.00;95.40;;;;;;5032616;28;20117;-67
2023/02/24 09:32:15;;;;;;;26.52;13.52;;;8.20;96.20;;;;;;5033919;28;20040;-67
2023/02/24 09:34:46;;;;;;;27.75;14.98;;;8.20;96.00;;;;;;5035288;28;20026;-67
2023/02/24 09:37:34;;;;;;;22.50;12.40;;;8.30;96.90;;;;;;5031897;28;20052;-67
2023/02/24 09:40:38;;;;;;;29.55;16.23;;;8.20;97.70;;;;;;5029186;28;20045;-67
2023/02/24 09:42:47;;;;;;;32.20;16.08;;;8.10;96.60;;;;;;5015182;28;20033;-67
2023/02/24 09:45:31;;;;;;;31.42;17.75;;;8.10;96.00;;;;;;5013737;28;20481;-67
2023/02/24 09:48:09;;;;;;;27.52;15.57;;;8.00;96.60;;;;;;5025953;28;20025;-67
2023/02/24 09:50:45;;;;;;;24.50;14.35;;;7.80;95.30;;;;;;5043713;28;20025;-67
2023/02/24 09:53:18;;;;;;;39.38;21.40;;;7.60;94.40;;;;;;5033040;28;20037;-67
2023/02/24 09:56:02;;;;;;;33.17;18.43;;;7.50;92.50;;;;;;5015933;28;20034;-66
2023/02/24 09:58:40;;;;;;;;;;;7.50;93.00;;;;;;5046241;28;20445;-67
2023/02/24 10:01:29;;;;;;;48.03;25.80;;;7.40;94.10;;;;;;5025113;28;20306;-67
2023/02/24 10:04:17;;;;;;;31.13;13.48;;;7.20;92.20;;;;;;5047571;28;20373;-67
2023/02/24 10:06:57;;;;;;;33.05;16.20;;;7.30;93.10;;;;;;5031966;28;20026;-67
2023/02/24 10:09:46;;;;;;;22.60;12.75;;;7.30;93.90;;;;;;5033664;28;20053;-67
2023/02/24 10:12:19;;;;;;;32.25;20.48;;;7.40;93.20;;;;;;5037072;28;20118;-67
2023/02/24 10:17:54;;;;;;;27.13;14.02;;;7.90;96.70;;;;;;5028119;28;20075;-67
2023/02/24 10:20:38;;;;;;;50.40;29.98;;;7.90;96.50;;;;;;5017804;28;20076;-67
2023/02/24 10:23:45;;;;;;;28.35;13.20;;;7.90;96.90;;;;;;5035125;28;20100;-67
2023/02/24 10:26:33;;;;;;;30.90;12.98;;;8.00;97.40;;;;;;5035048;28;20033;-67
2023/02/24 10:28:59;;;;;;;24.85;11.90;;;8.10;97.60;;;;;;5037093;28;20025;-67
2023/02/24 10:31:56;;;;;;;21.80;10.05;;;8.30;97.70;;;;;;5017686;28;20029;-67
2023/02/24 10:34:33;;;;;;;22.83;9.65;;;8.30;98.00;;;;;;5022081;28;20038;-67
2023/02/24 10:37:13;;;;;;;26.77;14.52;;;8.30;98.00;;;;;;5018990;28;20034;-67
2023/02/24 10:39:42;;;;;;;33.42;18.92;;;8.20;98.00;;;;;;5039358;28;20779;-67
2023/02/24 10:42:14;;;;;;;22.02;8.90;;;8.20;98.00;;;;;;5032968;28;20061;-66
2023/02/24 10:44:52;;;;;;;25.17;10.07;;;8.20;98.00;;;;;;5026812;28;20079;-66
2023/02/24 10:47:31;;;;;;;24.77;9.45;;;8.30;98.00;;;;;;5035899;28;20025;-66
2023/02/24 10:50:00;;;;;;;23.42;10.05;;;8.40;98.00;;;;;;5018978;28;20216;-66
2023/02/24 10:58:26;;;;;;;25.40;10.40;;;8.40;98.00;;;;;;5036375;28;20107;-67
2023/02/24 11:01:11;;;;;;;25.65;9.05;;;8.40;98.00;;;;;;5045550;28;20068;-67
2023/02/24 11:04:11;;;;;;;23.52;9.63;;;8.50;98.00;;;;;;5041042;28;20689;-68
2023/02/24 11:17:55;;;;;;;23.67;9.52;;;9.30;98.00;;;;;;5024376;28;20056;-67
2023/02/24 11:20:25;;;;;;;24.42;8.85;;;9.40;98.00;;;;;;5039332;28;20021;-66
2023/02/24 11:22:54;;;;;;;17.73;7.75;;;9.40;98.00;;;;;;5037329;28;20061;-66
2023/02/24 11:25:25;;;;;;;27.30;8.18;;;9.50;98.00;;;;;;5037014;28;20029;-67
2023/02/24 11:27:54;;;;;;;18.08;7.80;;;9.80;98.00;;;;;;5028704;28;20018;-66
2023/02/24 11:30:51;;;;;;;18.48;9.48;;;9.90;98.00;;;;;;5027010;28;20037;-66
2023/02/24 11:33:50;;;;;;;20.92;8.23;;;10.10;97.90;;;;;;5030344;28;20434;-66
2023/02/24 11:36:28;;;;;;;22.08;8.30;;;10.30;97.50;;;;;;5037516;28;20030;-67
2023/02/24 11:39:26;;;;;;;19.92;7.03;;;10.70;96.70;;;;;;5023427;28;20033;-67
2023/02/24 11:41:58;;;;;;;22.10;8.77;;;11.20;95.50;;;;;;5017485;28;20367;-66
2023/02/24 11:44:40;;;;;;;19.95;8.38;;;11.50;93.80;;;;;;5029620;28;20030;-66
2023/02/24 11:47:13;;;;;;;21.20;8.38;;;11.20;94.50;;;;;;5032838;28;20029;-66
2023/02/24 11:49:49;;;;;;;23.25;9.50;;;10.80;95.00;;;;;;5037484;28;20029;-67
2023/02/24 11:52:27;;;;;;;22.23;8.98;;;10.50;96.10;;;;;;5039292;28;20040;-67
2023/02/24 11:54:56;;;;;;;19.15;8.50;;;10.50;96.60;;;;;;5027438;28;20033;-67
2023/02/24 11:57:39;;;;;;;23.77;8.20;;;10.80;96.60;;;;;;5032805;28;20080;-67
2023/02/24 12:00:14;;;;;;;22.85;9.63;;;11.00;95.80;;;;;;5034043;28;20087;-67
2023/02/24 12:02:49;;;;;;;26.02;9.00;;;10.80;95.30;;;;;;5032722;28;20036;-67
2023/02/24 12:05:24;;;;;;;30.17;10.48;;;10.90;96.20;;;;;;5016709;28;20022;-67
2023/02/24 12:08:04;;;;;;;22.98;9.75;;;11.20;95.50;;;;;;5022646;28;20462;-67
2023/02/24 12:10:34;;;;;;;28.15;15.40;;;11.20;95.20;;;;;;5016668;28;20092;-67
2023/02/24 12:13:00;;;;;;;30.13;10.85;;;11.00;95.10;;;;;;5017506;28;20056;-67
2023/02/24 12:16:07;;;;;;;25.88;12.20;;;10.70;95.60;;;;;;5031265;28;20419;-67
2023/02/24 12:18:39;;;;;;;29.40;10.63;;;10.70;96.60;;;;;;5027346;28;20045;-67
2023/02/24 12:21:11;;;;;;;23.02;9.30;;;10.90;96.00;;;;;;5030776;28;20037;-66
2023/02/24 12:23:43;;;;;;;20.13;9.68;;;11.40;95.00;;;;;;5030658;28;20112;-67
2023/02/24 12:26:14;;;;;;;28.63;12.48;;;11.70;94.80;;;;;;5035635;28;20084;-66
2023/02/24 12:28:50;;;;;;;24.88;10.68;;;11.60;93.70;;;;;;5039192;28;20082;-67
2023/02/24 12:31:28;;;;;;;24.23;10.27;;;11.40;94.10;;;;;;5034634;28;20021;-67
2023/02/24 12:34:04;;;;;;;24.13;10.52;;;10.90;95.00;;;;;;5037364;28;20286;-67
2023/02/24 12:36:47;;;;;;;26.00;9.88;;;10.40;95.90;;;;;;5033696;28;20037;-67
2023/02/24 12:39:28;;;;;;;71.70;39.93;;;10.10;96.80;;;;;;5024898;28;20059;-67
2023/02/24 12:41:59;;;;;;;64.18;38.72;;;9.90;97.10;;;;;;5017371;28;20037;-67
2023/02/24 12:44:48;;;;;;;29.55;10.90;;;10.00;97.60;;;;;;5025230;28;20436;-66
2023/02/24 12:47:19;;;;;;;28.40;11.43;;;10.50;97.10;;;;;;5031252;28;20026;-66
2023/02/24 12:49:52;;;;;;;24.55;10.45;;;10.70;96.50;;;;;;5036751;28;20033;-66
2023/02/24 12:52:22;;;;;;;24.48;12.25;;;10.50;96.60;;;;;;5036363;28;20028;-66
2023/02/24 12:55:02;;;;;;;31.85;15.20;;;10.30;96.80;;;;;;5033495;28;20025;-66
2023/02/24 12:57:56;;;;;;;28.83;14.18;;;10.20;97.40;;;;;;5037187;28;20049;-66
2023/02/24 13:00:47;;;;;;;21.88;10.57;;;10.30;96.90;;;;;;5031094;28;20025;-66
2023/02/24 13:03:28;;;;;;;47.13;25.90;;;10.70;96.90;;;;;;5025538;28;20033;-66
2023/02/24 13:06:16;;;;;;;43.53;24.30;;;10.90;96.50;;;;;;5034576;28;20053;-67
2023/02/24 13:08:50;;;;;;;25.73;10.52;;;11.20;95.40;;;;;;5019011;28;20029;-66
2023/02/24 13:11:31;;;;;;;26.73;10.13;;;11.60;94.60;;;;;;5034356;28;20033;-66
2023/02/24 13:14:01;;;;;;;24.25;9.70;;;11.90;94.20;;;;;;5019863;28;20096;-66
2023/02/24 13:16:33;;;;;;;25.23;12.35;;;12.00;93.20;;;;;;5034269;28;20034;-67
2023/02/24 13:19:18;;;;;;;24.08;10.82;;;11.40;93.70;;;;;;5024480;28;20084;-66
2023/02/24 13:21:59;;;;;;;22.02;10.90;;;10.80;95.50;;;;;;5035773;28;20030;-66
2023/02/24 13:24:26;;;;;;;21.63;10.98;;;10.60;96.60;;;;;;5038597;28;20026;-66
2023/02/24 13:27:02;;;;;;;26.70;14.88;;;10.50;97.10;;;;;;5024646;28;20037;-66
2023/02/24 13:29:28;;;;;;;22.85;9.60;;;10.50;97.20;;;;;;5029469;28;20112;-66
2023/02/24 13:31:55;;;;;;;28.38;11.27;;;10.60;96.70;;;;;;5033715;28;20124;-66
2023/02/24 13:34:40;;;;;;;30.92;13.43;;;10.40;96.90;;;;;;5040190;28;20033;-66
2023/02/24 13:37:08;;;;;;;20.25;9.88;;;10.30;97.40;;;;;;5029215;28;20033;-66
2023/02/24 13:39:43;;;;;;;25.13;12.10;;;10.20;97.60;;;;;;5032756;28;20033;-66
2023/02/24 13:42:30;;;;;;;28.20;13.25;;;10.10;97.50;;;;;;5035010;28;20021;-66